This is the latest recevied weather packets stored in our database for station/object W1WRA. If no packets are shown the sender has not sent any weather packets the latest 10 day(s).
| Time | Temp. | Humidity | Pressure | Rain* | Wind** | Luminosity | Snow |
|---|---|---|---|---|---|---|---|
| 1777664116 | 15° C | 34% | 1008.8 hPa | 0 mm | - | 49 W/m² | - |
| 1777661717 | 15° C | 39% | 1009.1 hPa | 0 mm | - | 128 W/m² | - |
| 1777659337 | 16.11° C | 36% | 1009.1 hPa | 0 mm | - | 451 W/m² | - |
| 1777657515 | 16.11° C | 39% | 1009.2 hPa | 0 mm | - | 708 W/m² | - |
| 1777656918 | 15.56° C | 40% | 1009.2 hPa | 0 mm | - | 648 W/m² | - |
| 1777652136 | 13.33° C | 46% | 1009.6 hPa | 0 mm | - | 905 W/m² | - |
| 1777651517 | 13.89° C | 43% | 1009.8 hPa | 0 mm | - | 928 W/m² | - |
| 1777648517 | 11.67° C | 50% | 1010.1 hPa | 0 mm | - | 931 W/m² | - |
| 1777641318 | 8.89° C | 62% | 1009.9 hPa | 0 mm | - | 372 W/m² | - |
| 1777638319 | 7.22° C | 70% | 1009.7 hPa | 0 mm | - | 34 W/m² | - |
| 1777632920 | 5.56° C | 84% | 1009.4 hPa | 0 mm | - | 36 W/m² | - |
| 1777632341 | 5.56° C | 84% | 1009.3 hPa | 0 mm | - | 20 W/m² | - |
| 1777630521 | 5° C | 87% | 1009 hPa | 0 mm | - | 12 W/m² | - |
| 1777629321 | 5° C | 86% | 1008.9 hPa | 0 mm | - | 5 W/m² | - |
| 1777626942 | 5° C | 88% | 1008.6 hPa | 0 mm | - | 0 W/m² | - |
| 1777625762 | 5° C | 88% | 1008.4 hPa | 0 mm | - | 0 W/m² | - |
| 1777623943 | 5° C | 91% | 1008.4 hPa | 0 mm | - | 0 W/m² | - |
| 1777623322 | 5° C | 92% | 1008.3 hPa | 0 mm | - | 0 W/m² | - |
| 1777622763 | 5° C | 93% | 1008.3 hPa | 0 mm | - | 0 W/m² | - |
| 1777621523 | 5° C | 94% | 1008.2 hPa | 0 mm | - | 0 W/m² | - |
| 1777619723 | 5.56° C | 91% | 1008.1 hPa | 0 mm | - | 0 W/m² | - |
| 1777613125 | 7.22° C | 90% | 1008.1 hPa | 0 mm | - | 0 W/m² | - |
| 1777611326 | 7.78° C | 93% | 1008 hPa | 0 mm | - | 0 W/m² | - |
| 1777607126 | 8.89° C | 99% | 1007.2 hPa | 0 mm | - | 0 W/m² | - |
| 1777602347 | 8.89° C | 99% | 1007.3 hPa | 0 mm | - | 0 W/m² | - |
* Rain latest hour (hover to see other rain measurements)
** Current wind speed in m/s (hover to see current wind gust speed)